Time;durP1;ratioP1;P1;durP2;ratioP2;P2;SDS_P1;SDS_P2;PMS_P1;PMS_P2;Temp;Humidity;BMP_temperature;BMP_pressure;BME280_temperature;BME280_humidity;BME280_pressure;Samples;Min_cycle;Max_cycle;Signal;HPM_P1;HPM_P2
2021/06/17 00:56:31;;;;;;;13.40;10.10;;;;;;;18.43;100.00;100553.16;1658000;84;21833;-91
2021/06/17 00:58:58;;;;;;;11.65;9.23;;;;;;;18.42;100.00;100552.36;1667718;83;21058;-91
2021/06/17 01:01:25;;;;;;;14.95;9.48;;;;;;;18.38;100.00;100554.17;1679068;83;21072;-93
2021/06/17 01:03:54;;;;;;;13.88;9.48;;;;;;;18.36;100.00;100558.78;1690771;83;21019;-91
2021/06/17 01:06:38;;;;;;;12.03;9.63;;;;;;;18.34;100.00;100542.30;1668704;83;21039;-92
2021/06/17 01:09:23;;;;;;;;;;;;;;;;;;;;;
2021/06/17 01:11:51;;;;;;;12.40;9.75;;;;;;;18.24;100.00;100528.81;1653564;83;21105;-91
2021/06/17 01:14:36;;;;;;;12.07;9.53;;;;;;;18.22;100.00;100525.55;1669338;84;21037;-92
2021/06/17 01:17:11;;;;;;;14.00;9.50;;;;;;;18.19;100.00;100529.83;1656633;84;21094;-92
2021/06/17 01:20:14;;;;;;;;;;;;;;;;;;;;;
2021/06/17 01:25:56;;;;;;;11.10;9.65;;;;;;;18.14;100.00;100529.52;1500823;92;21844;-93
2021/06/17 01:28:27;;;;;;;13.90;10.08;;;;;;;18.15;100.00;100527.18;1549858;90;21219;-94
2021/06/17 01:31:17;;;;;;;12.93;10.08;;;;;;;18.15;100.00;100531.13;1567084;87;21228;-93
2021/06/17 01:36:59;;;;;;;;;;;;;;;;;;;;;
2021/06/17 01:42:34;;;;;;;;;;;;;;;;;;;;;
2021/06/17 01:47:10;;;;;;;;;;;;;;;18.21;100.00;100555.52;1240285;114;21275;-89
2021/06/17 02:14:51;;;;;;;;;;;;;;;;;;;;;
2021/06/17 02:28:49;;;;;;;;;;;;;;;;;;;;;
2021/06/17 02:31:30;;;;;;;;;;;;;;;;;;;;;
2021/06/17 02:34:02;;;;;;;;;;;;;;;;;;;;;
2021/06/17 02:36:39;;;;;;;;;;;;;;;;;;;;;
2021/06/17 02:39:15;;;;;;;;;;;;;;;;;;;;;
2021/06/17 02:41:42;;;;;;;11.03;9.88;;;;;;;18.43;100.00;100565.84;1602719;86;21636;-92
2021/06/17 02:44:14;;;;;;;;;;;;;;;18.45;100.00;100569.64;1625634;85;21109;-91
2021/06/17 02:46:40;;;;;;;10.35;8.78;;;;;;;18.44;100.00;100567.48;1577390;86;20154;-94
2021/06/17 02:49:09;;;;;;;12.05;8.90;;;;;;;18.47;100.00;100572.10;1682229;83;21387;-93
2021/06/17 02:51:43;;;;;;;12.23;9.23;;;;;;;18.48;100.00;100578.52;1668140;84;21074;-89
2021/06/17 02:54:10;;;;;;;12.23;9.88;;;;;;;18.49;100.00;100579.36;1695544;83;21067;-88
2021/06/17 02:57:09;;;;;;;12.10;8.85;;;;;;;18.51;100.00;100578.70;1676520;83;21050;-90
2021/06/17 03:00:07;;;;;;;9.98;9.05;;;;;;;18.53;100.00;100574.06;1674406;84;21102;-87
2021/06/17 03:19:11;;;;;;;10.72;9.73;;;;;;;18.69;100.00;100600.90;1696230;83;21597;-86
2021/06/17 03:21:47;;;;;;;12.07;10.60;;;;;;;18.71;100.00;100590.98;1692734;83;21151;-85
2021/06/17 03:24:16;;;;;;;11.97;9.83;;;;;;;18.71;100.00;100593.62;1693973;83;21034;-87
2021/06/17 03:26:46;;;;;;;12.05;10.28;;;;;;;18.74;100.00;100586.70;1722745;81;21023;-86
2021/06/17 03:29:17;;;;;;;11.65;10.45;;;;;;;18.76;100.00;100574.17;1696241;83;21102;-87
2021/06/17 03:31:44;;;;;;;10.72;9.70;;;;;;;18.81;100.00;100576.30;1693655;81;22008;-88
2021/06/17 03:34:13;;;;;;;10.80;9.70;;;;;;;18.84;100.00;100575.45;1723696;82;21168;-87
2021/06/17 03:36:41;;;;;;;12.55;9.88;;;;;;;18.88;100.00;100570.16;1694103;82;21086;-88
2021/06/17 03:39:08;;;;;;;11.50;9.85;;;;;;;18.91;100.00;100569.82;1725653;81;21059;-86
2021/06/17 03:41:37;;;;;;;13.62;10.65;;;;;;;18.91;100.00;100548.72;1716309;82;21049;-90
2021/06/17 03:44:06;;;;;;;11.03;9.93;;;;;;;18.89;100.00;100557.80;1697954;81;21168;-86
2021/06/17 03:46:37;;;;;;;10.90;9.78;;;;;;;18.88;100.00;100556.96;1719277;82;21144;-90
2021/06/17 03:49:06;;;;;;;10.82;9.73;;;;;;;18.89;100.00;100552.02;1725523;81;21534;-85
2021/06/17 03:51:33;;;;;;;10.88;9.78;;;;;;;18.90;100.00;100550.22;1696173;82;21113;-86
2021/06/17 03:54:01;;;;;;;11.55;10.32;;;;;;;18.89;100.00;100546.73;1701525;82;21035;-84
2021/06/17 03:56:29;;;;;;;10.72;9.70;;;;;;;18.89;100.00;100557.30;1722060;81;21058;-86
2021/06/17 03:58:56;;;;;;;12.00;10.80;;;;;;;18.93;100.00;100572.82;1685645;82;21694;-87
2021/06/17 04:01:24;;;;;;;11.60;10.35;;;;;;;18.95;100.00;100573.48;1721289;81;21093;-84
2021/06/17 04:03:51;;;;;;;15.75;10.40;;;;;;;18.98;100.00;100579.71;1727720;81;21106;-84
2021/06/17 04:06:18;;;;;;;14.53;10.75;;;;;;;19.00;100.00;100582.50;1728101;81;20994;-85
2021/06/17 04:08:50;;;;;;;12.13;10.93;;;;;;;19.03;100.00;100587.45;1723689;82;20944;-85
2021/06/17 04:11:20;;;;;;;12.28;10.95;;;;;;;19.06;100.00;100584.95;1708922;83;21109;-87
2021/06/17 04:13:49;;;;;;;13.93;9.90;;;;;;;19.08;100.00;100589.57;1687224;82;21133;-85
2021/06/17 04:16:22;;;;;;;13.48;10.25;;;;;;;19.10;100.00;100590.70;1700331;82;21014;-84
2021/06/17 04:18:49;;;;;;;12.58;10.40;;;;;;;19.11;100.00;100597.13;1700615;82;21046;-82
2021/06/17 04:21:19;;;;;;;16.67;10.68;;;;;;;19.11;100.00;100602.91;1705641;82;21132;-85
2021/06/17 04:23:51;;;;;;;12.23;10.93;;;;;;;19.09;100.00;100599.14;1739429;81;21060;-84
2021/06/17 04:26:21;;;;;;;11.97;10.68;;;;;;;19.10;100.00;100598.62;1725255;81;21086;-84
2021/06/17 04:28:48;;;;;;;12.18;9.93;;;;;;;19.10;100.00;100588.91;1688264;83;21173;-85
2021/06/17 04:31:17;;;;;;;16.30;10.10;;;;;;;19.13;100.00;100579.82;1665060;84;21130;-83
2021/06/17 04:33:46;;;;;;;12.40;10.30;;;;;;;19.17;100.00;100578.47;1664124;83;21022;-83
2021/06/17 04:36:14;;;;;;;11.55;10.35;;;;;;;19.21;100.00;100577.95;1714167;82;21093;-84
2021/06/17 04:38:41;;;;;;;16.60;10.10;;;;;;;19.22;100.00;100582.23;1729028;81;20998;-83
2021/06/17 04:41:09;;;;;;;11.08;9.93;;;;;;;19.26;100.00;100584.55;1725437;82;21055;-86
2021/06/17 04:43:37;;;;;;;12.53;9.68;;;;;;;19.31;100.00;100586.16;1725983;81;21703;-84
2021/06/17 04:46:06;;;;;;;13.30;10.18;;;;;;;19.36;100.00;100586.45;1727862;81;21576;-84
2021/06/17 04:48:35;;;;;;;11.65;10.30;;;;;;;19.41;100.00;100586.77;1724740;81;21155;-87
2021/06/17 04:51:04;;;;;;;13.78;10.25;;;;;;;19.46;100.00;100588.88;1707116;82;21063;-89
2021/06/17 04:53:35;;;;;;;14.18;10.13;;;;;;;19.50;100.00;100594.13;1726633;81;21422;-89
2021/06/17 04:56:02;;;;;;;10.55;9.38;;;;;;;19.52;100.00;100603.51;1726034;81;21554;-91
2021/06/17 04:58:29;;;;;;;12.95;10.23;;;;;;;19.52;100.00;100606.15;1725155;82;21196;-90
2021/06/17 05:01:05;;;;;;;11.25;9.10;;;;;;;19.50;100.00;100606.01;1692345;83;21077;-90
2021/06/17 05:03:29;;;;;;;13.32;10.08;;;;;;;19.46;100.00;100596.30;1698706;82;21549;-87
2021/06/17 05:05:59;;;;;;;12.00;10.03;;;;;;;19.44;100.00;100604.88;1694448;81;21137;-89
2021/06/17 05:11:16;;;;;;;12.60;10.48;;;;;;;19.45;100.00;100618.41;1709130;82;21053;-89
2021/06/17 05:13:43;;;;;;;11.08;9.93;;;;;;;19.47;100.00;100628.31;1702173;81;21545;-88
2021/06/17 05:16:11;;;;;;;15.55;9.60;;;;;;;19.49;100.00;100632.92;1685650;82;21050;-87
2021/06/17 05:18:38;;;;;;;12.13;9.98;;;;;;;19.48;100.00;100649.76;1693719;82;21813;-88
2021/06/17 05:21:10;;;;;;;12.13;9.63;;;;;;;19.46;100.00;100654.89;1690228;81;21065;-86
2021/06/17 05:23:40;;;;;;;10.63;9.63;;;;;;;19.45;100.00;100665.13;1691900;82;21640;-88
2021/06/17 05:26:09;;;;;;;14.65;10.35;;;;;;;19.43;100.00;100678.48;1688687;82;21971;-86
2021/06/17 05:28:36;;;;;;;13.90;10.28;;;;;;;19.43;100.00;100697.47;1707586;82;21030;-92
2021/06/17 05:31:09;;;;;;;13.77;11.23;;;;;;;19.43;100.00;100699.60;1724744;81;21121;-86
2021/06/17 05:33:38;;;;;;;12.55;10.38;;;;;;;19.43;100.00;100708.84;1705407;81;21076;-88
2021/06/17 05:36:16;;;;;;;;;;;;;;;;;;;;;
2021/06/17 05:38:35;;;;;;;14.50;11.57;;;;;;;19.41;100.00;100725.37;1639099;85;21112;-87
2021/06/17 05:41:02;;;;;;;16.02;10.58;;;;;;;19.42;100.00;100728.34;1657741;84;21461;-91
2021/06/17 05:43:33;;;;;;;11.25;10.10;;;;;;;19.42;100.00;100728.34;1700044;81;21113;-87
2021/06/17 05:46:04;;;;;;;13.28;10.28;;;;;;;19.46;100.00;100741.52;1708893;81;21046;-89
2021/06/17 05:48:45;;;;;;;13.08;10.40;;;;;;;19.48;100.00;100746.63;1702760;81;21256;-88
2021/06/17 05:51:09;;;;;;;11.18;10.08;;;;;;;19.48;100.00;100754.06;1695957;81;21497;-88
2021/06/17 05:53:38;;;;;;;12.40;11.00;;;;;;;19.49;100.00;100750.91;1702953;81;21089;-87
2021/06/17 05:56:28;;;;;;;;;;;;;;;;;;;;;
2021/06/17 05:59:14;;;;;;;;;;;;;;;;;;;;;
2021/06/17 06:02:01;;;;;;;;;;;;;;;;;;;;;
2021/06/17 06:05:01;;;;;;;;;;;;;;;;;;;;;
2021/06/17 06:13:31;;;;;;;17.05;11.68;;;;;;;19.44;100.00;100749.29;1318195;105;21216;-87
2021/06/17 06:16:35;;;;;;;;;;;;;;;;;;;;;
2021/06/17 06:19:10;;;;;;;12.00;10.58;;;;;;;19.57;100.00;100740.31;1332306;104;21153;-89
2021/06/17 06:24:23;;;;;;;12.43;11.22;;;;;;;19.73;100.00;100730.19;1388984;101;22597;-87
2021/06/17 06:26:57;;;;;;;14.03;11.20;;;;;;;19.81;100.00;100726.66;1379173;98;21185;-87
2021/06/17 06:29:27;;;;;;;12.37;11.18;;;;;;;19.84;100.00;100721.89;1444423;97;21172;-87
2021/06/17 06:31:57;;;;;;;14.07;11.43;;;;;;;19.92;100.00;100713.10;1444958;98;21244;-86
2021/06/17 06:34:32;;;;;;;15.18;11.50;;;;;;;20.01;100.00;100715.19;1527361;86;21167;-88
2021/06/17 06:36:59;;;;;;;12.65;11.10;;;;;;;20.05;100.00;100702.44;1631543;86;21097;-88
2021/06/17 06:39:32;;;;;;;11.57;10.38;;;;;;;20.08;100.00;100700.27;1613586;87;21146;-86
2021/06/17 06:42:06;;;;;;;14.50;10.25;;;;;;;20.13;100.00;100691.81;1562649;90;21188;-89
2021/06/17 06:44:38;;;;;;;13.58;10.40;;;;;;;20.18;100.00;100686.32;1594831;86;21745;-89
2021/06/17 06:47:05;;;;;;;11.90;10.80;;;;;;;20.31;100.00;100664.58;1631276;85;21374;-89
2021/06/17 06:49:36;;;;;;;12.23;11.00;;;;;;;20.31;100.00;100664.58;1649388;84;21130;-86
2021/06/17 06:52:12;;;;;;;11.70;10.50;;;;;;;20.37;100.00;100658.24;1725357;82;21161;-86
2021/06/17 06:54:35;;;;;;;11.28;10.18;;;;;;;20.40;100.00;100648.13;1712579;80;21018;-88
2021/06/17 06:57:03;;;;;;;12.35;10.72;;;;;;;20.39;100.00;100631.94;1720234;81;20988;-86
2021/06/17 06:59:30;;;;;;;12.03;11.03;;;;;;;20.41;100.00;100633.91;1709326;81;21130;-89
2021/06/17 07:01:57;;;;;;;11.43;10.32;;;;;;;20.42;100.00;100626.30;1697079;83;21148;-86
2021/06/17 07:04:25;;;;;;;12.00;10.25;;;;;;;20.44;100.00;100609.76;1718559;82;21498;-86
2021/06/17 07:06:52;;;;;;;11.65;10.45;;;;;;;20.47;100.00;100597.48;1718743;82;21117;-87
2021/06/17 07:09:20;;;;;;;12.00;10.85;;;;;;;20.49;100.00;100591.52;1679077;83;21117;-85
2021/06/17 07:11:48;;;;;;;12.15;10.25;;;;;;;20.51;100.00;100599.26;1661546;83;21066;-90
2021/06/17 07:14:16;;;;;;;11.57;10.58;;;;;;;20.53;100.00;100603.88;1724227;81;21030;-89
2021/06/17 07:16:44;;;;;;;13.62;10.23;;;;;;;20.57;100.00;100612.27;1668112;83;21132;-87
2021/06/17 07:19:11;;;;;;;12.80;9.93;;;;;;;20.60;100.00;100619.34;1667645;83;21143;-87
2021/06/17 07:21:38;;;;;;;11.30;10.15;;;;;;;20.64;100.00;100625.08;1666318;83;21245;-88
2021/06/17 07:24:07;;;;;;;10.88;9.88;;;;;;;20.65;100.00;100632.86;1664616;83;21095;-85
2021/06/17 07:26:34;;;;;;;13.48;11.18;;;;;;;20.65;100.00;100653.18;1687370;83;20979;-88
2021/06/17 07:29:01;;;;;;;11.73;10.55;;;;;;;20.63;100.00;100660.50;1685106;83;21074;-89
2021/06/17 07:31:29;;;;;;;10.80;9.80;;;;;;;20.61;100.00;100663.82;1676934;82;21120;-89
2021/06/17 07:33:56;;;;;;;10.82;9.73;;;;;;;20.61;100.00;100641.34;1704309;82;21078;-90
2021/06/17 07:36:24;;;;;;;10.53;9.63;;;;;;;20.64;100.00;100647.09;1727517;81;21037;-85
2021/06/17 07:38:52;;;;;;;11.28;9.85;;;;;;;20.68;100.00;100642.25;1720982;82;21076;-86
2021/06/17 07:41:19;;;;;;;11.15;10.08;;;;;;;20.73;100.00;100647.03;1670544;82;21039;-87
2021/06/17 07:43:48;;;;;;;11.70;9.98;;;;;;;20.82;100.00;100655.69;1736392;81;21069;-88
2021/06/17 07:46:15;;;;;;;12.70;9.70;;;;;;;20.95;100.00;100652.73;1703992;82;21156;-86
2021/06/17 07:48:44;;;;;;;11.48;10.28;;;;;;;21.18;100.00;100666.88;1665909;82;21159;-87
2021/06/17 07:51:12;;;;;;;11.63;10.50;;;;;;;21.43;100.00;100673.48;1699476;82;21059;-88
2021/06/17 07:53:39;;;;;;;10.80;9.70;;;;;;;21.68;100.00;100677.16;1692611;82;21124;-88
2021/06/17 07:56:06;;;;;;;11.65;10.10;;;;;;;21.92;100.00;100678.32;1706792;82;21569;-89
2021/06/17 07:58:35;;;;;;;11.33;8.95;;;;;;;22.12;100.00;100670.56;1663478;83;21066;-86
2021/06/17 08:01:04;;;;;;;9.83;8.93;;;;;;;22.27;100.00;100662.54;1666551;83;21062;-87
2021/06/17 08:03:31;;;;;;;9.45;8.65;;;;;;;22.41;100.00;100669.61;1689142;83;21082;-86
2021/06/17 08:05:58;;;;;;;12.10;8.43;;;;;;;22.50;100.00;100660.50;1689134;83;21172;-87
2021/06/17 08:08:26;;;;;;;12.88;8.70;;;;;;;22.57;100.00;100665.84;1659864;85;21136;-89
2021/06/17 08:19:02;;;;;;;8.88;7.92;;;;;;;22.84;100.00;100651.41;1542425;88;21981;-89
2021/06/17 08:21:36;;;;;;;7.92;7.20;;;;;;;22.97;100.00;100654.66;1554293;90;21302;-88
2021/06/17 08:24:05;;;;;;;10.90;7.78;;;;;;;23.03;100.00;100658.36;1610355;86;21443;-90
2021/06/17 08:26:33;;;;;;;8.35;7.62;;;;;;;23.04;100.00;100659.48;1675461;83;21006;-91
2021/06/17 08:29:05;;;;;;;11.25;8.28;;;;;;;23.07;100.00;100655.61;1674581;83;21110;-89
2021/06/17 08:31:33;;;;;;;10.38;8.33;;;;;;;23.12;100.00;100659.32;1672014;84;20963;-88
2021/06/17 08:34:00;;;;;;;13.80;8.93;;;;;;;23.16;100.00;100657.89;1667399;84;21039;-87
2021/06/17 08:36:27;;;;;;;7.33;6.62;;;;;;;23.18;100.00;100661.73;1702579;83;20983;-89
2021/06/17 08:38:54;;;;;;;8.55;7.00;;;;;;;23.20;100.00;100662.33;1692195;84;21011;-86
2021/06/17 08:41:21;;;;;;;7.85;7.10;;;;;;;23.20;100.00;100671.63;1695139;83;21194;-86
2021/06/17 08:43:51;;;;;;;7.70;6.92;;;;;;;23.21;100.00;100675.12;1695853;83;21023;-86
2021/06/17 08:46:19;;;;;;;8.78;7.35;;;;;;;23.18;100.00;100675.02;1699068;83;21027;-85
2021/06/17 08:48:47;;;;;;;7.75;7.05;;;;;;;23.14;100.00;100673.23;1667216;84;21089;-87
2021/06/17 08:52:00;;;;;;;;;;;;;;;;;;;;;
2021/06/17 08:55:49;;;;;;;;;;;;;;;;;;;;;
2021/06/17 09:10:49;;;;;;;;;;;;;;;;;;;;;
2021/06/17 09:13:26;;;;;;;;;;;;;;;;;;;;;
2021/06/17 09:15:55;;;;;;;7.87;7.08;;;;;;;23.39;100.00;100689.19;1469597;92;21181;-89
2021/06/17 09:18:32;;;;;;;7.70;7.00;;;;;;;23.40;100.00;100698.27;1508686;91;21525;-90
2021/06/17 09:21:08;;;;;;;7.70;6.55;;;;;;;23.41;100.00;100694.60;1542140;90;21213;-87
2021/06/17 09:23:39;;;;;;;10.38;7.00;;;;;;;23.39;100.00;100697.98;1598059;84;21110;-88
2021/06/17 09:26:20;;;;;;;7.70;6.75;;;;;;;23.39;100.00;100693.17;1663276;84;21081;-89
2021/06/17 09:29:00;;;;;;;8.83;7.65;;;;;;;23.37;100.00;100713.30;1672275;84;21077;-87
2021/06/17 09:31:42;;;;;;;9.08;6.50;;;;;;;23.35;100.00;100710.53;1686752;82;21136;-88
2021/06/17 09:34:10;;;;;;;10.88;6.35;;;;;;;23.30;100.00;100719.90;1641045;85;21149;-90
2021/06/17 09:36:40;;;;;;;8.93;6.15;;;;;;;23.21;100.00;100715.77;1637528;84;21065;-85
2021/06/17 09:39:18;;;;;;;7.00;6.30;;;;;;;23.16;100.00;100714.19;1660177;83;21144;-88
2021/06/17 09:41:51;;;;;;;9.08;7.05;;;;;;;23.12;100.00;100733.68;1635674;85;21525;-88
2021/06/17 09:44:37;;;;;;;13.10;7.47;;;;;;;23.08;100.00;100740.90;1686338;83;21528;-88
2021/06/17 09:47:15;;;;;;;11.43;8.08;;;;;;;23.06;100.00;100737.61;1659109;83;20993;-89
2021/06/17 09:49:45;;;;;;;10.43;7.70;;;;;;;23.04;100.00;100740.47;1662384;83;21033;-88
2021/06/17 09:52:15;;;;;;;7.70;6.87;;;;;;;23.06;100.00;100748.23;1657405;83;21514;-88
2021/06/17 09:54:43;;;;;;;9.58;6.50;;;;;;;23.08;100.00;100750.20;1674731;84;21496;-88
2021/06/17 09:57:23;;;;;;;8.28;6.85;;;;;;;23.12;100.00;100752.76;1697156;83;21033;-88
2021/06/17 09:59:55;;;;;;;8.55;6.90;;;;;;;23.16;100.00;100759.34;1670070;82;21052;-87
2021/06/17 10:02:31;;;;;;;7.62;5.75;;;;;;;23.21;100.00;100752.14;1687277;83;21111;-89
2021/06/17 10:07:51;;;;;;;7.33;6.62;;;;;;;23.31;100.00;100760.06;1663776;83;21140;-89
2021/06/17 10:10:22;;;;;;;10.68;7.50;;;;;;;23.36;100.00;100752.00;1664338;84;21105;-88
2021/06/17 10:12:50;;;;;;;9.85;6.78;;;;;;;23.40;100.00;100746.62;1659479;84;21132;-88
2021/06/17 10:15:17;;;;;;;11.70;7.40;;;;;;;23.44;100.00;100751.83;1658673;84;21120;-87
2021/06/17 10:17:44;;;;;;;10.05;7.85;;;;;;;23.44;100.00;100746.03;1665311;83;21677;-89
2021/06/17 10:20:13;;;;;;;7.42;6.28;;;;;;;23.44;100.00;100751.34;1659177;84;21468;-91
2021/06/17 10:22:41;;;;;;;9.25;6.97;;;;;;;23.43;100.00;100750.22;1686692;83;21030;-89
2021/06/17 10:25:13;;;;;;;7.17;6.58;;;;;;;23.42;100.00;100749.91;1632649;83;21062;-89
2021/06/17 10:27:43;;;;;;;9.18;6.35;;;;;;;23.41;100.00;100759.70;1657515;84;21124;-90
2021/06/17 10:30:26;;;;;;;;;;;;;;;;;;;;;
2021/06/17 10:32:50;;;;;;;8.75;6.40;;;;;;;23.41;100.00;100752.25;1663134;84;22208;-89
2021/06/17 10:35:30;;;;;;;7.00;6.40;;;;;;;23.42;100.00;100749.91;1670417;84;21089;-88
2021/06/17 10:38:19;;;;;;;;;;;;;;;;;;;;;
2021/06/17 10:40:40;;;;;;;6.58;6.03;;;;;;;23.47;100.00;100742.15;1634688;83;21080;-91
2021/06/17 10:43:24;;;;;;;9.28;6.30;;;;;;;23.48;100.00;100740.61;1659528;83;21189;-88
2021/06/17 10:52:45;;;;;;;;;;;;;;;;;;;;;
2021/06/17 10:55:42;;;;;;;7.37;6.72;;;;;;;23.56;100.00;100742.30;1446564;96;21085;-90
2021/06/17 10:58:56;;;;;;;;;;;;;;;;;;;;;
2021/06/17 11:02:24;;;;;;;;;;;;;;;;;;;;;
2021/06/17 12:27:51;;;;;;;9.10;8.40;;;;;;;23.72;100.00;100738.98;1426046;97;21077;-88
2021/06/17 12:30:41;;;;;;;8.78;8.15;;;;;;;23.75;100.00;100735.94;1506080;91;21217;-89
2021/06/17 12:33:17;;;;;;;8.95;8.10;;;;;;;23.78;100.00;100739.01;1525263;92;21093;-87
2021/06/17 12:35:54;;;;;;;8.53;7.72;;;;;;;23.84;100.00;100740.02;1521870;91;22765;-87
2021/06/17 12:38:33;;;;;;;8.57;7.77;;;;;;;23.89;100.00;100732.28;1537582;90;21224;-87
2021/06/17 12:41:18;;;;;;;8.65;7.83;;;;;;;23.98;100.00;100734.79;1565550;89;21772;-87
2021/06/17 12:43:53;;;;;;;9.75;8.75;;;;;;;24.03;100.00;100733.66;1556338;87;21160;-86
2021/06/17 12:46:28;;;;;;;9.50;8.00;;;;;;;24.03;100.00;100733.66;1663443;84;21006;-87
2021/06/17 12:52:07;;;;;;;7.90;7.20;;;;;;;24.04;100.00;100737.44;1664717;84;21097;-89
2021/06/17 12:54:45;;;;;;;7.78;7.05;;;;;;;24.03;100.00;100732.33;1623665;86;21141;-88
2021/06/17 12:57:30;;;;;;;;;;;;;;;;;;;;;
2021/06/17 13:00:04;;;;;;;11.90;7.55;;;;;;;23.97;100.00;100742.45;1625777;85;21087;-88
2021/06/17 13:02:38;;;;;;;10.85;8.65;;;;;;;23.94;100.00;100743.68;1671202;84;21157;-87
2021/06/17 13:05:19;;;;;;;14.30;9.38;;;;;;;23.92;100.00;100746.48;1668627;84;21033;-86
2021/06/17 13:08:11;;;;;;;12.90;8.55;;;;;;;23.91;100.00;100747.53;1613628;86;21092;-88
2021/06/17 13:10:50;;;;;;;21.80;11.75;;;;;;;23.90;100.00;100746.38;1633478;86;21168;-85
2021/06/17 13:13:26;;;;;;;16.70;10.32;;;;;;;23.90;100.00;100747.22;1634389;86;21030;-87
2021/06/17 13:16:01;;;;;;;14.68;8.90;;;;;;;23.90;100.00;100750.38;1652005;84;21719;-86
2021/06/17 13:18:33;;;;;;;13.95;9.35;;;;;;;23.89;100.00;100755.37;1665245;84;21023;-88
2021/06/17 13:21:11;;;;;;;13.38;8.30;;;;;;;23.86;100.00;100760.59;1643880;84;21050;-86
2021/06/17 13:23:39;;;;;;;11.05;7.10;;;;;;;23.82;100.00;100759.86;1644077;84;21097;-88
2021/06/17 13:26:30;;;;;;;7.40;6.70;;;;;;;23.76;100.00;100760.14;1636144;83;21062;-87
2021/06/17 13:29:10;;;;;;;;;;;;;;;;;;;;;
2021/06/17 13:31:33;;;;;;;6.85;6.35;;;;;;;23.62;100.00;100766.75;1686608;82;21083;-86
2021/06/17 13:34:20;;;;;;;;;;;;;;;;;;;;;
2021/06/17 13:36:53;;;;;;;;;;;;;;;;;;;;;
2021/06/17 13:39:15;;;;;;;6.95;6.42;;;;;;;23.53;100.00;100758.63;1583930;89;21054;-87
2021/06/17 13:41:46;;;;;;;6.35;5.78;;;;;;;23.53;100.00;100753.31;1572144;89;21899;-87
2021/06/17 13:44:23;;;;;;;;;;;;;;;;;;;;;
2021/06/17 13:46:48;;;;;;;6.60;6.05;;;;;;;23.53;100.00;100748.00;1604755;85;21588;-86
2021/06/17 13:49:21;;;;;;;7.22;5.30;;;;;;;23.55;100.00;100738.52;1671195;83;21029;-85
2021/06/17 13:51:50;;;;;;;6.37;5.85;;;;;;;23.58;100.00;100740.76;1682985;83;20979;-84
2021/06/17 13:54:25;;;;;;;6.65;5.95;;;;;;;23.57;100.00;100726.66;1634798;84;21113;-86
2021/06/17 13:56:53;;;;;;;8.38;6.47;;;;;;;23.53;100.00;100724.60;1634985;86;21065;-84
2021/06/17 13:59:20;;;;;;;6.58;5.97;;;;;;;23.44;100.00;100721.28;1637327;86;21098;-88
2021/06/17 14:01:48;;;;;;;6.78;6.10;;;;;;;23.36;100.00;100720.12;1620922;85;21623;-84
2021/06/17 14:04:17;;;;;;;6.55;6.05;;;;;;;23.29;100.00;100706.83;1616152;85;21548;-87
2021/06/17 14:06:47;;;;;;;7.50;6.90;;;;;;;23.25;100.00;100710.39;1641144;85;21169;-86
2021/06/17 14:09:15;;;;;;;8.20;7.40;;;;;;;23.22;100.00;100712.62;1633538;85;21109;-83
2021/06/17 14:11:44;;;;;;;12.00;8.40;;;;;;;23.22;100.00;100723.24;1635678;84;21649;-86
2021/06/17 14:14:11;;;;;;;19.00;11.68;;;;;;;23.23;100.00;100721.71;1641848;85;21056;-85
2021/06/17 14:16:38;;;;;;;11.93;7.83;;;;;;;23.30;100.00;100732.37;1620928;85;21624;-86
2021/06/17 14:19:11;;;;;;;8.28;7.55;;;;;;;23.35;100.00;100730.46;1612124;85;21177;-88
2021/06/17 14:21:39;;;;;;;7.65;6.95;;;;;;;23.37;100.00;100735.88;1679187;82;21103;-86
2021/06/17 17:04:15;;;;;;;12.23;11.03;;;;;;;23.27;100.00;100794.69;1618062;86;21212;-91
2021/06/17 18:05:04;;;;;;;16.45;14.75;;;;;;;21.73;100.00;100828.48;1576089;88;21166;-87
2021/06/17 18:24:18;;;;;;;;;;;;;;;;;;;;;
2021/06/17 18:27:01;;;;;;;;;;;;;;;;;;;;;
2021/06/17 18:32:50;;;;;;;;;;;;;;;;;;;;;
2021/06/17 18:43:10;;;;;;;;;;;;;;;;;;;;;
2021/06/17 19:06:16;;;;;;;9.98;3.55;;;;;;;20.93;100.00;101027.91;1270107;106;21218;-88
2021/06/17 19:08:47;;;;;;;8.25;3.65;;;;;;;20.41;100.00;100911.58;1396357;100;21668;-86
2021/06/17 19:11:16;;;;;;;9.10;3.95;;;;;;;20.13;100.00;100897.51;1466275;96;21108;-87
2021/06/17 19:13:46;;;;;;;6.80;4.40;;;;;;;20.02;100.00;100892.58;1466722;93;21233;-89
2021/06/17 19:16:24;;;;;;;;;;;;;;;;;;;;;
2021/06/17 19:18:43;;;;;;;5.50;4.53;;;;;;;19.88;100.00;100922.37;1588498;87;21147;-89
2021/06/17 19:21:11;;;;;;;10.72;5.58;;;;;;;19.82;100.00;100924.67;1581008;88;21509;-88
2021/06/17 19:23:39;;;;;;;5.72;4.47;;;;;;;19.83;100.00;100934.22;1583194;87;21089;-89
2021/06/17 19:26:06;;;;;;;8.28;5.67;;;;;;;19.91;100.00;100907.50;1583164;87;21077;-88
2021/06/17 19:28:34;;;;;;;6.50;4.42;;;;;;;19.91;100.00;100873.16;1579702;88;21982;-86
2021/06/17 19:31:01;;;;;;;8.03;4.42;;;;;;;19.83;100.00;100931.58;1595132;86;21568;-89
2021/06/17 19:33:28;;;;;;;8.93;3.85;;;;;;;19.78;100.00;100872.34;1609220;86;21130;-88
2021/06/17 19:35:55;;;;;;;4.30;3.90;;;;;;;19.75;100.00;100857.63;1620851;85;21571;-82
2021/06/17 19:38:22;;;;;;;5.78;4.20;;;;;;;19.71;100.00;100840.48;1622870;86;21058;-83
2021/06/17 19:40:50;;;;;;;7.05;3.90;;;;;;;19.75;100.00;100844.92;1627995;86;21190;-87
2021/06/17 19:43:18;;;;;;;6.00;3.70;;;;;;;19.80;100.00;100818.80;1634253;85;21045;-92
2021/06/17 19:45:45;;;;;;;5.28;3.85;;;;;;;19.68;100.00;100795.91;1667123;84;21573;-86
2021/06/17 19:48:14;;;;;;;4.30;3.87;;;;;;;19.49;100.00;100807.20;1666480;85;21018;-86
2021/06/17 19:50:41;;;;;;;3.80;3.50;;;;;;;19.41;100.00;100838.07;1624060;84;21149;-88
2021/06/17 19:53:09;;;;;;;5.08;4.58;;;;;;;19.39;100.00;100967.62;1636755;85;21106;-92
2021/06/17 19:55:51;;;;;;;8.18;6.28;;;;;;;19.43;100.00;100980.81;1659732;85;21125;-89
2021/06/17 19:58:07;;;;;;;5.08;4.58;;;;;;;19.46;100.00;100967.29;1623464;85;21087;-91
2021/06/17 20:00:34;;;;;;;5.47;4.15;;;;;;;19.44;100.00;100944.17;1655711;84;21165;-86
2021/06/17 20:03:01;;;;;;;8.48;4.50;;;;;;;19.37;100.00;100948.48;1667921;84;21026;-88
2021/06/17 20:09:14;;;;;;;8.73;4.53;;;;;;;19.27;100.00;100969.77;1646697;84;21117;-90
2021/06/17 20:11:44;;;;;;;8.18;4.60;;;;;;;19.27;100.00;100982.16;1636210;85;21636;-88
2021/06/17 20:14:12;;;;;;;5.80;3.50;;;;;;;19.34;100.00;100973.91;1620505;85;21111;-86
2021/06/17 20:16:42;;;;;;;4.90;4.40;;;;;;;19.41;100.00;100969.61;1597293;87;21780;-89
2021/06/17 20:19:10;;;;;;;5.08;4.58;;;;;;;19.39;100.00;100946.50;1613107;86;21542;-90
2021/06/17 20:21:41;;;;;;;6.65;5.37;;;;;;;19.37;100.00;100941.87;1614567;86;21580;-92
2021/06/17 20:24:09;;;;;;;8.43;4.80;;;;;;;19.33;100.00;100962.50;1604254;87;21568;-89
2021/06/17 20:30:05;;;;;;;6.60;4.80;;;;;;;19.22;100.00;100958.88;1611449;86;21761;-89
2021/06/17 20:32:33;;;;;;;7.60;5.45;;;;;;;19.17;100.00;100947.50;1584849;86;22217;-88
2021/06/17 20:35:00;;;;;;;7.37;5.28;;;;;;;19.14;100.00;100941.72;1605085;86;21137;-85
2021/06/17 20:37:27;;;;;;;6.22;5.33;;;;;;;19.11;100.00;100957.36;1608234;86;21631;-85
2021/06/17 20:39:54;;;;;;;7.47;5.35;;;;;;;19.06;100.00;100953.92;1606956;86;21158;-87
2021/06/17 20:46:31;;;;;;;7.42;5.20;;;;;;;19.01;100.00;100964.62;1662336;84;21003;-88
2021/06/17 20:49:00;;;;;;;6.80;5.10;;;;;;;18.97;100.00;100963.28;1672069;85;21572;-88
2021/06/17 20:51:28;;;;;;;7.42;5.15;;;;;;;18.91;100.00;100953.69;1634178;85;20985;-89
2021/06/17 20:53:55;;;;;;;6.03;5.37;;;;;;;18.91;100.00;100953.69;1666301;84;21117;-89
2021/06/17 20:56:22;;;;;;;7.58;5.95;;;;;;;18.92;100.00;100947.94;1670568;84;21576;-85
2021/06/17 20:58:50;;;;;;;8.33;5.60;;;;;;;18.94;100.00;100955.71;1662982;85;21184;-85
2021/06/17 21:01:18;;;;;;;8.28;6.20;;;;;;;18.94;100.00;100957.03;1638302;85;21038;-89
2021/06/17 21:03:45;;;;;;;8.95;6.15;;;;;;;18.93;100.00;100956.19;1691346;83;21001;-92
2021/06/17 21:06:12;;;;;;;7.87;6.72;;;;;;;18.94;100.00;100957.03;1663460;84;21136;-87